sensor_id;sensor_type;location;lat;lon;timestamp;P1;durP1;ratioP1;P2;durP2;ratioP2
58222;SDS011;44020;50.890;15.796;2024-02-26T00:00:24;61.30;;;28.80;;
58222;SDS011;44020;50.890;15.796;2024-02-26T00:03:11;61.30;;;28.70;;
58222;SDS011;44020;50.890;15.796;2024-02-26T00:05:38;59.00;;;27.20;;
58222;SDS011;44020;50.890;15.796;2024-02-26T00:08:06;56.20;;;23.90;;
58222;SDS011;44020;50.890;15.796;2024-02-26T00:10:33;40.80;;;19.90;;
58222;SDS011;44020;50.890;15.796;2024-02-26T00:13:00;58.30;;;27.00;;
58222;SDS011;44020;50.890;15.796;2024-02-26T00:15:27;59.00;;;26.20;;
58222;SDS011;44020;50.890;15.796;2024-02-26T00:17:55;55.20;;;26.60;;
58222;SDS011;44020;50.890;15.796;2024-02-26T00:20:22;53.50;;;25.90;;
58222;SDS011;44020;50.890;15.796;2024-02-26T00:22:49;55.40;;;25.20;;
58222;SDS011;44020;50.890;15.796;2024-02-26T00:25:16;57.30;;;27.50;;
58222;SDS011;44020;50.890;15.796;2024-02-26T00:27:43;62.00;;;29.00;;
58222;SDS011;44020;50.890;15.796;2024-02-26T00:30:11;68.50;;;29.80;;
58222;SDS011;44020;50.890;15.796;2024-02-26T00:32:39;76.00;;;31.80;;
58222;SDS011;44020;50.890;15.796;2024-02-26T00:35:06;76.80;;;32.80;;
58222;SDS011;44020;50.890;15.796;2024-02-26T00:37:33;75.50;;;32.90;;
58222;SDS011;44020;50.890;15.796;2024-02-26T00:40:01;64.50;;;28.60;;
58222;SDS011;44020;50.890;15.796;2024-02-26T00:42:28;65.50;;;30.60;;
58222;SDS011;44020;50.890;15.796;2024-02-26T00:44:55;66.30;;;29.60;;
58222;SDS011;44020;50.890;15.796;2024-02-26T00:47:22;72.10;;;30.30;;
58222;SDS011;44020;50.890;15.796;2024-02-26T00:49:49;72.40;;;31.20;;
58222;SDS011;44020;50.890;15.796;2024-02-26T00:52:17;61.50;;;27.90;;
58222;SDS011;44020;50.890;15.796;2024-02-26T00:54:44;71.80;;;31.60;;
58222;SDS011;44020;50.890;15.796;2024-02-26T00:57:11;66.70;;;30.10;;
58222;SDS011;44020;50.890;15.796;2024-02-26T00:59:39;67.60;;;28.70;;
58222;SDS011;44020;50.890;15.796;2024-02-26T01:02:06;64.30;;;28.30;;
58222;SDS011;44020;50.890;15.796;2024-02-26T01:04:33;72.40;;;29.10;;
58222;SDS011;44020;50.890;15.796;2024-02-26T01:07:01;62.50;;;28.20;;
58222;SDS011;44020;50.890;15.796;2024-02-26T01:09:28;71.00;;;30.60;;
58222;SDS011;44020;50.890;15.796;2024-02-26T01:11:55;79.80;;;33.40;;
58222;SDS011;44020;50.890;15.796;2024-02-26T01:14:22;88.90;;;38.90;;
58222;SDS011;44020;50.890;15.796;2024-02-26T01:16:50;68.00;;;32.10;;
58222;SDS011;44020;50.890;15.796;2024-02-26T01:19:17;61.10;;;29.30;;
58222;SDS011;44020;50.890;15.796;2024-02-26T01:21:44;61.60;;;29.20;;
58222;SDS011;44020;50.890;15.796;2024-02-26T01:24:12;57.70;;;25.50;;
58222;SDS011;44020;50.890;15.796;2024-02-26T01:26:39;54.90;;;27.20;;
58222;SDS011;44020;50.890;15.796;2024-02-26T01:29:06;61.80;;;28.30;;
58222;SDS011;44020;50.890;15.796;2024-02-26T01:31:33;57.70;;;26.30;;
58222;SDS011;44020;50.890;15.796;2024-02-26T01:34:00;45.70;;;22.30;;
58222;SDS011;44020;50.890;15.796;2024-02-26T01:36:28;60.50;;;24.40;;
58222;SDS011;44020;50.890;15.796;2024-02-26T01:38:55;52.40;;;22.40;;
58222;SDS011;44020;50.890;15.796;2024-02-26T01:41:22;57.40;;;25.00;;
58222;SDS011;44020;50.890;15.796;2024-02-26T01:43:50;62.10;;;27.20;;
58222;SDS011;44020;50.890;15.796;2024-02-26T01:46:17;63.80;;;28.50;;
58222;SDS011;44020;50.890;15.796;2024-02-26T01:48:45;60.10;;;27.40;;
58222;SDS011;44020;50.890;15.796;2024-02-26T01:51:14;63.70;;;27.80;;
58222;SDS011;44020;50.890;15.796;2024-02-26T01:53:44;56.20;;;24.40;;
58222;SDS011;44020;50.890;15.796;2024-02-26T01:56:11;53.70;;;23.70;;
58222;SDS011;44020;50.890;15.796;2024-02-26T01:58:41;61.90;;;26.50;;
58222;SDS011;44020;50.890;15.796;2024-02-26T02:01:08;51.40;;;22.50;;
58222;SDS011;44020;50.890;15.796;2024-02-26T02:03:36;55.60;;;22.60;;
58222;SDS011;44020;50.890;15.796;2024-02-26T02:06:03;64.90;;;25.00;;
58222;SDS011;44020;50.890;15.796;2024-02-26T02:08:31;65.60;;;26.40;;
58222;SDS011;44020;50.890;15.796;2024-02-26T02:10:59;75.90;;;30.70;;
58222;SDS011;44020;50.890;15.796;2024-02-26T02:13:26;66.20;;;29.20;;
58222;SDS011;44020;50.890;15.796;2024-02-26T02:15:53;75.70;;;30.80;;
58222;SDS011;44020;50.890;15.796;2024-02-26T02:18:21;93.20;;;35.30;;
58222;SDS011;44020;50.890;15.796;2024-02-26T02:20:48;79.10;;;31.50;;
58222;SDS011;44020;50.890;15.796;2024-02-26T02:23:15;76.70;;;29.80;;
58222;SDS011;44020;50.890;15.796;2024-02-26T02:25:42;69.40;;;29.80;;
58222;SDS011;44020;50.890;15.796;2024-02-26T02:28:09;64.10;;;27.10;;
58222;SDS011;44020;50.890;15.796;2024-02-26T02:30:37;58.20;;;24.60;;
58222;SDS011;44020;50.890;15.796;2024-02-26T02:33:05;57.20;;;23.10;;
58222;SDS011;44020;50.890;15.796;2024-02-26T02:35:32;48.30;;;21.70;;
58222;SDS011;44020;50.890;15.796;2024-02-26T02:37:59;47.00;;;21.20;;
58222;SDS011;44020;50.890;15.796;2024-02-26T02:40:27;47.20;;;20.20;;
58222;SDS011;44020;50.890;15.796;2024-02-26T02:42:54;49.00;;;20.50;;
58222;SDS011;44020;50.890;15.796;2024-02-26T02:45:21;42.40;;;18.80;;
58222;SDS011;44020;50.890;15.796;2024-02-26T02:47:48;38.10;;;17.70;;
58222;SDS011;44020;50.890;15.796;2024-02-26T02:50:15;38.50;;;17.30;;
58222;SDS011;44020;50.890;15.796;2024-02-26T02:52:43;35.40;;;16.70;;
58222;SDS011;44020;50.890;15.796;2024-02-26T02:55:10;35.10;;;16.10;;
58222;SDS011;44020;50.890;15.796;2024-02-26T02:57:37;31.70;;;14.90;;
58222;SDS011;44020;50.890;15.796;2024-02-26T03:00:08;34.90;;;15.00;;
58222;SDS011;44020;50.890;15.796;2024-02-26T03:02:36;29.60;;;14.10;;
58222;SDS011;44020;50.890;15.796;2024-02-26T03:05:04;33.20;;;14.40;;
58222;SDS011;44020;50.890;15.796;2024-02-26T03:07:31;35.40;;;15.40;;
58222;SDS011;44020;50.890;15.796;2024-02-26T03:09:58;30.70;;;15.60;;
58222;SDS011;44020;50.890;15.796;2024-02-26T03:12:25;32.00;;;15.50;;
58222;SDS011;44020;50.890;15.796;2024-02-26T03:14:54;31.50;;;14.90;;
58222;SDS011;44020;50.890;15.796;2024-02-26T03:17:21;34.40;;;15.80;;
58222;SDS011;44020;50.890;15.796;2024-02-26T03:19:51;26.70;;;13.00;;
58222;SDS011;44020;50.890;15.796;2024-02-26T03:22:20;30.90;;;14.00;;
58222;SDS011;44020;50.890;15.796;2024-02-26T03:24:48;30.80;;;13.80;;
58222;SDS011;44020;50.890;15.796;2024-02-26T03:27:15;32.20;;;13.80;;
58222;SDS011;44020;50.890;15.796;2024-02-26T03:29:42;27.90;;;12.80;;
58222;SDS011;44020;50.890;15.796;2024-02-26T03:32:10;33.00;;;14.40;;
58222;SDS011;44020;50.890;15.796;2024-02-26T03:34:37;31.30;;;13.80;;
58222;SDS011;44020;50.890;15.796;2024-02-26T03:37:06;33.80;;;14.90;;
58222;SDS011;44020;50.890;15.796;2024-02-26T03:39:34;35.70;;;15.70;;
58222;SDS011;44020;50.890;15.796;2024-02-26T03:42:01;30.40;;;14.20;;
58222;SDS011;44020;50.890;15.796;2024-02-26T03:44:29;31.10;;;14.00;;
58222;SDS011;44020;50.890;15.796;2024-02-26T03:46:56;29.20;;;13.30;;
58222;SDS011;44020;50.890;15.796;2024-02-26T03:49:23;31.10;;;13.80;;
58222;SDS011;44020;50.890;15.796;2024-02-26T03:51:50;30.70;;;15.40;;
58222;SDS011;44020;50.890;15.796;2024-02-26T03:54:17;32.90;;;15.90;;
58222;SDS011;44020;50.890;15.796;2024-02-26T03:56:44;34.90;;;15.00;;
58222;SDS011;44020;50.890;15.796;2024-02-26T03:59:11;37.80;;;15.90;;
58222;SDS011;44020;50.890;15.796;2024-02-26T04:01:38;28.50;;;13.10;;
58222;SDS011;44020;50.890;15.796;2024-02-26T04:04:06;34.10;;;14.90;;
58222;SDS011;44020;50.890;15.796;2024-02-26T04:06:33;29.80;;;15.50;;
58222;SDS011;44020;50.890;15.796;2024-02-26T04:09:00;42.30;;;18.60;;
58222;SDS011;44020;50.890;15.796;2024-02-26T04:11:30;50.70;;;21.00;;
58222;SDS011;44020;50.890;15.796;2024-02-26T04:13:57;49.00;;;19.80;;
58222;SDS011;44020;50.890;15.796;2024-02-26T04:16:24;43.70;;;18.80;;
58222;SDS011;44020;50.890;15.796;2024-02-26T04:18:52;47.50;;;20.00;;
58222;SDS011;44020;50.890;15.796;2024-02-26T04:21:20;40.80;;;18.20;;
58222;SDS011;44020;50.890;15.796;2024-02-26T04:23:47;39.80;;;18.00;;
58222;SDS011;44020;50.890;15.796;2024-02-26T04:26:16;41.10;;;17.90;;
58222;SDS011;44020;50.890;15.796;2024-02-26T04:28:43;36.40;;;16.80;;
58222;SDS011;44020;50.890;15.796;2024-02-26T04:31:10;37.30;;;17.60;;
58222;SDS011;44020;50.890;15.796;2024-02-26T04:33:37;39.90;;;18.00;;
58222;SDS011;44020;50.890;15.796;2024-02-26T04:36:04;34.30;;;16.30;;
58222;SDS011;44020;50.890;15.796;2024-02-26T04:38:32;35.50;;;17.70;;
58222;SDS011;44020;50.890;15.796;2024-02-26T04:40:59;39.20;;;17.10;;
58222;SDS011;44020;50.890;15.796;2024-02-26T04:43:26;36.60;;;16.80;;
58222;SDS011;44020;50.890;15.796;2024-02-26T04:45:53;43.40;;;19.90;;
58222;SDS011;44020;50.890;15.796;2024-02-26T04:48:21;36.70;;;16.80;;
58222;SDS011;44020;50.890;15.796;2024-02-26T04:50:49;39.30;;;18.10;;
58222;SDS011;44020;50.890;15.796;2024-02-26T04:53:16;38.10;;;16.50;;
58222;SDS011;44020;50.890;15.796;2024-02-26T04:55:44;34.50;;;16.60;;
58222;SDS011;44020;50.890;15.796;2024-02-26T04:58:11;44.90;;;19.60;;
58222;SDS011;44020;50.890;15.796;2024-02-26T05:00:39;52.90;;;21.00;;
58222;SDS011;44020;50.890;15.796;2024-02-26T05:03:05;41.60;;;19.10;;
58222;SDS011;44020;50.890;15.796;2024-02-26T05:05:34;36.40;;;16.20;;
58222;SDS011;44020;50.890;15.796;2024-02-26T05:08:01;31.90;;;16.20;;
58222;SDS011;44020;50.890;15.796;2024-02-26T05:10:30;40.10;;;17.10;;
58222;SDS011;44020;50.890;15.796;2024-02-26T05:12:57;38.60;;;18.70;;
58222;SDS011;44020;50.890;15.796;2024-02-26T05:15:24;38.20;;;16.70;;
58222;SDS011;44020;50.890;15.796;2024-02-26T05:17:51;37.40;;;18.10;;
58222;SDS011;44020;50.890;15.796;2024-02-26T05:20:19;47.40;;;20.80;;
58222;SDS011;44020;50.890;15.796;2024-02-26T05:22:47;51.10;;;21.50;;
58222;SDS011;44020;50.890;15.796;2024-02-26T05:25:15;48.80;;;21.40;;
58222;SDS011;44020;50.890;15.796;2024-02-26T05:27:43;45.50;;;21.60;;
58222;SDS011;44020;50.890;15.796;2024-02-26T05:30:11;49.30;;;21.40;;
58222;SDS011;44020;50.890;15.796;2024-02-26T05:32:38;48.80;;;20.50;;
58222;SDS011;44020;50.890;15.796;2024-02-26T05:35:06;39.40;;;18.10;;
58222;SDS011;44020;50.890;15.796;2024-02-26T05:37:33;43.40;;;19.70;;
58222;SDS011;44020;50.890;15.796;2024-02-26T05:40:01;39.90;;;18.60;;
58222;SDS011;44020;50.890;15.796;2024-02-26T05:42:31;47.30;;;19.00;;
58222;SDS011;44020;50.890;15.796;2024-02-26T05:44:58;47.30;;;19.10;;
58222;SDS011;44020;50.890;15.796;2024-02-26T05:47:26;40.10;;;19.10;;
58222;SDS011;44020;50.890;15.796;2024-02-26T05:49:53;39.90;;;19.00;;
58222;SDS011;44020;50.890;15.796;2024-02-26T05:52:21;41.80;;;17.70;;
58222;SDS011;44020;50.890;15.796;2024-02-26T05:54:49;43.60;;;19.10;;
58222;SDS011;44020;50.890;15.796;2024-02-26T05:57:16;51.70;;;19.40;;
58222;SDS011;44020;50.890;15.796;2024-02-26T05:59:43;44.40;;;19.50;;
58222;SDS011;44020;50.890;15.796;2024-02-26T06:02:10;40.60;;;18.70;;
58222;SDS011;44020;50.890;15.796;2024-02-26T06:04:38;38.00;;;18.40;;
58222;SDS011;44020;50.890;15.796;2024-02-26T06:07:05;38.40;;;17.60;;
58222;SDS011;44020;50.890;15.796;2024-02-26T06:09:33;36.70;;;17.00;;
58222;SDS011;44020;50.890;15.796;2024-02-26T06:12:00;42.30;;;18.20;;
58222;SDS011;44020;50.890;15.796;2024-02-26T06:14:27;43.70;;;19.00;;
58222;SDS011;44020;50.890;15.796;2024-02-26T06:16:55;50.50;;;22.40;;
58222;SDS011;44020;50.890;15.796;2024-02-26T06:19:21;56.70;;;24.30;;
58222;SDS011;44020;50.890;15.796;2024-02-26T06:21:49;59.50;;;23.80;;
58222;SDS011;44020;50.890;15.796;2024-02-26T06:24:17;66.00;;;24.60;;
58222;SDS011;44020;50.890;15.796;2024-02-26T06:26:44;99.50;;;32.30;;
58222;SDS011;44020;50.890;15.796;2024-02-26T06:29:11;103.80;;;31.90;;
58222;SDS011;44020;50.890;15.796;2024-02-26T06:31:39;80.10;;;29.00;;
58222;SDS011;44020;50.890;15.796;2024-02-26T06:34:06;66.60;;;25.80;;
58222;SDS011;44020;50.890;15.796;2024-02-26T06:36:33;79.20;;;27.40;;
58222;SDS011;44020;50.890;15.796;2024-02-26T06:39:01;94.40;;;33.40;;
58222;SDS011;44020;50.890;15.796;2024-02-26T06:41:29;117.60;;;42.40;;
58222;SDS011;44020;50.890;15.796;2024-02-26T06:43:56;121.40;;;41.40;;
58222;SDS011;44020;50.890;15.796;2024-02-26T06:46:24;92.20;;;32.90;;
58222;SDS011;44020;50.890;15.796;2024-02-26T06:48:52;93.00;;;32.90;;
58222;SDS011;44020;50.890;15.796;2024-02-26T06:51:20;77.90;;;31.20;;
58222;SDS011;44020;50.890;15.796;2024-02-26T06:53:47;78.70;;;30.20;;
58222;SDS011;44020;50.890;15.796;2024-02-26T06:56:15;84.50;;;30.60;;
58222;SDS011;44020;50.890;15.796;2024-02-26T06:58:43;97.20;;;34.20;;
58222;SDS011;44020;50.890;15.796;2024-02-26T07:01:11;108.90;;;37.00;;
58222;SDS011;44020;50.890;15.796;2024-02-26T07:03:42;89.30;;;37.40;;
58222;SDS011;44020;50.890;15.796;2024-02-26T07:06:09;73.70;;;30.70;;
58222;SDS011;44020;50.890;15.796;2024-02-26T07:08:36;66.40;;;27.00;;
58222;SDS011;44020;50.890;15.796;2024-02-26T07:11:06;55.90;;;24.60;;
58222;SDS011;44020;50.890;15.796;2024-02-26T07:13:34;53.40;;;24.90;;
58222;SDS011;44020;50.890;15.796;2024-02-26T07:16:01;55.90;;;24.10;;
58222;SDS011;44020;50.890;15.796;2024-02-26T07:18:29;53.70;;;24.00;;
58222;SDS011;44020;50.890;15.796;2024-02-26T07:20:56;45.50;;;21.70;;
58222;SDS011;44020;50.890;15.796;2024-02-26T07:23:23;56.20;;;24.70;;
58222;SDS011;44020;50.890;15.796;2024-02-26T07:25:50;90.00;;;36.50;;
58222;SDS011;44020;50.890;15.796;2024-02-26T07:28:19;103.40;;;40.00;;
58222;SDS011;44020;50.890;15.796;2024-02-26T07:30:46;150.50;;;50.90;;
58222;SDS011;44020;50.890;15.796;2024-02-26T07:33:14;173.20;;;54.60;;
58222;SDS011;44020;50.890;15.796;2024-02-26T07:35:41;162.60;;;51.50;;
58222;SDS011;44020;50.890;15.796;2024-02-26T07:38:08;130.60;;;46.70;;
58222;SDS011;44020;50.890;15.796;2024-02-26T07:40:36;100.80;;;41.90;;
58222;SDS011;44020;50.890;15.796;2024-02-26T07:43:04;88.90;;;38.70;;
58222;SDS011;44020;50.890;15.796;2024-02-26T07:45:31;83.60;;;36.20;;
58222;SDS011;44020;50.890;15.796;2024-02-26T07:47:58;65.10;;;29.60;;
58222;SDS011;44020;50.890;15.796;2024-02-26T07:50:25;68.00;;;29.30;;
58222;SDS011;44020;50.890;15.796;2024-02-26T07:52:53;60.00;;;26.90;;
58222;SDS011;44020;50.890;15.796;2024-02-26T07:55:21;47.70;;;22.70;;
58222;SDS011;44020;50.890;15.796;2024-02-26T07:57:49;45.90;;;21.10;;
58222;SDS011;44020;50.890;15.796;2024-02-26T08:00:16;61.10;;;24.10;;
58222;SDS011;44020;50.890;15.796;2024-02-26T08:02:44;114.00;;;36.70;;
58222;SDS011;44020;50.890;15.796;2024-02-26T08:05:11;134.70;;;41.40;;
58222;SDS011;44020;50.890;15.796;2024-02-26T08:07:38;128.60;;;41.70;;
58222;SDS011;44020;50.890;15.796;2024-02-26T08:10:06;63.80;;;25.70;;
58222;SDS011;44020;50.890;15.796;2024-02-26T08:12:34;43.90;;;18.80;;
58222;SDS011;44020;50.890;15.796;2024-02-26T08:15:01;33.90;;;16.20;;
58222;SDS011;44020;50.890;15.796;2024-02-26T08:17:29;28.90;;;15.00;;
58222;SDS011;44020;50.890;15.796;2024-02-26T08:19:55;27.00;;;14.10;;
58222;SDS011;44020;50.890;15.796;2024-02-26T08:22:23;26.90;;;12.10;;
58222;SDS011;44020;50.890;15.796;2024-02-26T08:24:50;22.30;;;11.80;;
58222;SDS011;44020;50.890;15.796;2024-02-26T08:27:17;15.80;;;8.20;;
58222;SDS011;44020;50.890;15.796;2024-02-26T08:29:44;13.40;;;7.60;;
58222;SDS011;44020;50.890;15.796;2024-02-26T08:32:11;13.80;;;6.80;;
58222;SDS011;44020;50.890;15.796;2024-02-26T08:34:38;9.30;;;4.90;;
58222;SDS011;44020;50.890;15.796;2024-02-26T08:37:05;8.50;;;4.90;;
58222;SDS011;44020;50.890;15.796;2024-02-26T08:39:32;11.30;;;5.90;;
58222;SDS011;44020;50.890;15.796;2024-02-26T08:41:59;10.80;;;5.20;;
58222;SDS011;44020;50.890;15.796;2024-02-26T08:44:26;8.80;;;4.80;;
58222;SDS011;44020;50.890;15.796;2024-02-26T08:46:53;8.80;;;4.70;;
58222;SDS011;44020;50.890;15.796;2024-02-26T08:49:20;6.90;;;4.50;;
58222;SDS011;44020;50.890;15.796;2024-02-26T08:51:50;8.70;;;4.90;;
58222;SDS011;44020;50.890;15.796;2024-02-26T08:54:18;7.20;;;4.50;;
58222;SDS011;44020;50.890;15.796;2024-02-26T08:56:45;9.20;;;4.60;;
58222;SDS011;44020;50.890;15.796;2024-02-26T08:59:12;7.60;;;4.20;;
58222;SDS011;44020;50.890;15.796;2024-02-26T09:01:43;6.60;;;4.30;;
58222;SDS011;44020;50.890;15.796;2024-02-26T09:04:10;8.60;;;4.60;;
58222;SDS011;44020;50.890;15.796;2024-02-26T09:06:37;7.10;;;4.00;;
58222;SDS011;44020;50.890;15.796;2024-02-26T09:09:04;6.60;;;4.00;;
58222;SDS011;44020;50.890;15.796;2024-02-26T09:11:31;8.00;;;4.20;;
58222;SDS011;44020;50.890;15.796;2024-02-26T09:13:58;7.60;;;3.80;;
58222;SDS011;44020;50.890;15.796;2024-02-26T09:16:25;7.50;;;3.80;;
58222;SDS011;44020;50.890;15.796;2024-02-26T09:18:53;7.40;;;4.40;;
58222;SDS011;44020;50.890;15.796;2024-02-26T09:21:21;6.40;;;3.90;;
58222;SDS011;44020;50.890;15.796;2024-02-26T09:23:50;5.70;;;3.40;;
58222;SDS011;44020;50.890;15.796;2024-02-26T09:26:18;5.60;;;3.30;;
58222;SDS011;44020;50.890;15.796;2024-02-26T09:28:45;6.50;;;3.20;;
58222;SDS011;44020;50.890;15.796;2024-02-26T09:31:13;7.10;;;3.90;;
58222;SDS011;44020;50.890;15.796;2024-02-26T09:33:42;7.00;;;4.20;;
58222;SDS011;44020;50.890;15.796;2024-02-26T09:36:09;5.70;;;3.40;;
58222;SDS011;44020;50.890;15.796;2024-02-26T09:38:37;6.30;;;3.80;;
58222;SDS011;44020;50.890;15.796;2024-02-26T09:41:06;6.60;;;4.00;;
58222;SDS011;44020;50.890;15.796;2024-02-26T09:43:36;6.10;;;3.70;;
58222;SDS011;44020;50.890;15.796;2024-02-26T09:46:08;5.60;;;3.20;;
58222;SDS011;44020;50.890;15.796;2024-02-26T09:48:36;6.10;;;3.40;;
58222;SDS011;44020;50.890;15.796;2024-02-26T09:51:04;4.90;;;3.20;;
58222;SDS011;44020;50.890;15.796;2024-02-26T09:53:31;6.80;;;3.60;;
58222;SDS011;44020;50.890;15.796;2024-02-26T09:55:59;6.70;;;3.00;;
58222;SDS011;44020;50.890;15.796;2024-02-26T09:58:27;5.00;;;3.20;;
58222;SDS011;44020;50.890;15.796;2024-02-26T10:00:56;6.00;;;3.70;;
58222;SDS011;44020;50.890;15.796;2024-02-26T10:03:38;6.90;;;3.50;;
58222;SDS011;44020;50.890;15.796;2024-02-26T10:06:11;6.20;;;3.70;;
58222;SDS011;44020;50.890;15.796;2024-02-26T10:08:38;4.40;;;3.30;;
58222;SDS011;44020;50.890;15.796;2024-02-26T10:11:09;7.60;;;3.60;;
58222;SDS011;44020;50.890;15.796;2024-02-26T10:13:37;6.20;;;3.50;;
58222;SDS011;44020;50.890;15.796;2024-02-26T10:16:05;5.70;;;3.50;;
58222;SDS011;44020;50.890;15.796;2024-02-26T10:21:13;4.10;;;2.80;;
58222;SDS011;44020;50.890;15.796;2024-02-26T10:23:44;5.70;;;3.40;;
58222;SDS011;44020;50.890;15.796;2024-02-26T10:26:22;4.80;;;3.00;;
58222;SDS011;44020;50.890;15.796;2024-02-26T10:28:54;6.60;;;3.10;;
58222;SDS011;44020;50.890;15.796;2024-02-26T10:31:26;5.80;;;3.10;;
58222;SDS011;44020;50.890;15.796;2024-02-26T10:33:55;4.60;;;2.80;;
58222;SDS011;44020;50.890;15.796;2024-02-26T10:36:23;5.10;;;2.80;;
58222;SDS011;44020;50.890;15.796;2024-02-26T10:38:52;5.30;;;2.60;;
58222;SDS011;44020;50.890;15.796;2024-02-26T10:41:21;5.10;;;2.60;;
58222;SDS011;44020;50.890;15.796;2024-02-26T10:43:49;4.50;;;2.80;;
58222;SDS011;44020;50.890;15.796;2024-02-26T10:46:19;3.80;;;2.70;;
58222;SDS011;44020;50.890;15.796;2024-02-26T10:48:50;4.40;;;2.70;;
58222;SDS011;44020;50.890;15.796;2024-02-26T10:51:27;5.00;;;2.60;;
58222;SDS011;44020;50.890;15.796;2024-02-26T10:53:59;4.20;;;2.50;;
58222;SDS011;44020;50.890;15.796;2024-02-26T10:56:31;4.70;;;2.80;;
58222;SDS011;44020;50.890;15.796;2024-02-26T10:59:01;6.00;;;3.10;;
58222;SDS011;44020;50.890;15.796;2024-02-26T11:01:28;5.50;;;3.00;;
58222;SDS011;44020;50.890;15.796;2024-02-26T11:03:57;6.00;;;3.10;;
58222;SDS011;44020;50.890;15.796;2024-02-26T11:06:25;5.10;;;2.90;;
58222;SDS011;44020;50.890;15.796;2024-02-26T11:08:53;6.00;;;3.30;;
58222;SDS011;44020;50.890;15.796;2024-02-26T11:11:21;5.10;;;3.10;;
58222;SDS011;44020;50.890;15.796;2024-02-26T11:13:48;5.60;;;2.80;;
58222;SDS011;44020;50.890;15.796;2024-02-26T11:16:18;5.10;;;3.00;;
58222;SDS011;44020;50.890;15.796;2024-02-26T11:18:46;5.70;;;2.90;;
58222;SDS011;44020;50.890;15.796;2024-02-26T11:21:16;3.90;;;2.80;;
58222;SDS011;44020;50.890;15.796;2024-02-26T11:23:45;4.30;;;2.70;;
58222;SDS011;44020;50.890;15.796;2024-02-26T11:26:14;5.90;;;2.70;;
58222;SDS011;44020;50.890;15.796;2024-02-26T11:28:43;3.80;;;2.60;;
58222;SDS011;44020;50.890;15.796;2024-02-26T11:31:12;4.80;;;2.80;;
58222;SDS011;44020;50.890;15.796;2024-02-26T11:33:39;3.30;;;2.30;;
58222;SDS011;44020;50.890;15.796;2024-02-26T11:36:10;5.10;;;3.20;;
58222;SDS011;44020;50.890;15.796;2024-02-26T11:38:38;5.50;;;3.20;;
58222;SDS011;44020;50.890;15.796;2024-02-26T11:41:07;6.50;;;3.30;;
58222;SDS011;44020;50.890;15.796;2024-02-26T11:43:53;6.30;;;3.00;;
58222;SDS011;44020;50.890;15.796;2024-02-26T11:46:31;3.80;;;3.00;;
58222;SDS011;44020;50.890;15.796;2024-02-26T11:51:55;5.00;;;2.70;;
58222;SDS011;44020;50.890;15.796;2024-02-26T11:54:38;9.20;;;3.30;;
58222;SDS011;44020;50.890;15.796;2024-02-26T11:57:38;6.70;;;3.10;;
58222;SDS011;44020;50.890;15.796;2024-02-26T12:02:46;4.90;;;3.10;;
58222;SDS011;44020;50.890;15.796;2024-02-26T12:05:15;4.90;;;2.80;;
58222;SDS011;44020;50.890;15.796;2024-02-26T12:07:45;3.70;;;2.90;;
58222;SDS011;44020;50.890;15.796;2024-02-26T12:13:06;4.10;;;2.80;;
58222;SDS011;44020;50.890;15.796;2024-02-26T12:15:38;4.60;;;2.90;;
58222;SDS011;44020;50.890;15.796;2024-02-26T12:18:08;5.30;;;3.10;;
58222;SDS011;44020;50.890;15.796;2024-02-26T12:20:37;4.70;;;3.10;;
58222;SDS011;44020;50.890;15.796;2024-02-26T12:23:04;5.00;;;3.20;;
58222;SDS011;44020;50.890;15.796;2024-02-26T12:25:31;4.60;;;2.90;;
58222;SDS011;44020;50.890;15.796;2024-02-26T12:27:59;5.00;;;3.20;;
58222;SDS011;44020;50.890;15.796;2024-02-26T12:30:26;5.90;;;3.20;;
58222;SDS011;44020;50.890;15.796;2024-02-26T12:32:56;3.70;;;2.80;;
58222;SDS011;44020;50.890;15.796;2024-02-26T12:35:24;9.10;;;3.20;;
58222;SDS011;44020;50.890;15.796;2024-02-26T12:37:52;5.00;;;2.70;;
58222;SDS011;44020;50.890;15.796;2024-02-26T12:40:22;4.70;;;3.40;;
58222;SDS011;44020;50.890;15.796;2024-02-26T12:42:50;4.90;;;2.90;;
58222;SDS011;44020;50.890;15.796;2024-02-26T12:45:19;5.00;;;3.20;;
58222;SDS011;44020;50.890;15.796;2024-02-26T12:47:47;7.40;;;3.40;;
58222;SDS011;44020;50.890;15.796;2024-02-26T12:50:17;6.70;;;3.20;;
58222;SDS011;44020;50.890;15.796;2024-02-26T12:52:45;4.90;;;3.20;;
58222;SDS011;44020;50.890;15.796;2024-02-26T12:55:14;4.80;;;3.40;;
58222;SDS011;44020;50.890;15.796;2024-02-26T12:57:43;6.70;;;3.70;;
58222;SDS011;44020;50.890;15.796;2024-02-26T13:00:21;6.00;;;3.20;;
58222;SDS011;44020;50.890;15.796;2024-02-26T13:02:51;5.60;;;3.20;;
58222;SDS011;44020;50.890;15.796;2024-02-26T13:05:22;5.00;;;3.60;;
58222;SDS011;44020;50.890;15.796;2024-02-26T13:07:49;5.00;;;3.40;;
58222;SDS011;44020;50.890;15.796;2024-02-26T13:10:18;4.80;;;3.30;;
58222;SDS011;44020;50.890;15.796;2024-02-26T13:12:47;4.70;;;3.20;;
58222;SDS011;44020;50.890;15.796;2024-02-26T13:15:20;6.30;;;3.20;;
58222;SDS011;44020;50.890;15.796;2024-02-26T13:17:48;6.10;;;4.00;;
58222;SDS011;44020;50.890;15.796;2024-02-26T13:20:28;12.50;;;7.60;;
58222;SDS011;44020;50.890;15.796;2024-02-26T13:23:06;31.70;;;17.30;;
58222;SDS011;44020;50.890;15.796;2024-02-26T13:25:34;21.60;;;15.70;;
58222;SDS011;44020;50.890;15.796;2024-02-26T13:30:35;5.10;;;3.90;;
58222;SDS011;44020;50.890;15.796;2024-02-26T13:33:09;11.80;;;9.90;;
58222;SDS011;44020;50.890;15.796;2024-02-26T13:35:38;9.10;;;6.80;;
58222;SDS011;44020;50.890;15.796;2024-02-26T13:38:06;7.70;;;5.40;;
58222;SDS011;44020;50.890;15.796;2024-02-26T13:40:34;6.30;;;3.70;;
58222;SDS011;44020;50.890;15.796;2024-02-26T13:43:01;7.40;;;4.10;;
58222;SDS011;44020;50.890;15.796;2024-02-26T13:45:29;5.80;;;3.30;;
58222;SDS011;44020;50.890;15.796;2024-02-26T13:48:01;5.10;;;3.10;;
58222;SDS011;44020;50.890;15.796;2024-02-26T13:50:29;4.00;;;2.50;;
58222;SDS011;44020;50.890;15.796;2024-02-26T13:53:02;4.80;;;2.70;;
58222;SDS011;44020;50.890;15.796;2024-02-26T13:55:30;6.30;;;3.50;;
58222;SDS011;44020;50.890;15.796;2024-02-26T13:57:59;5.40;;;3.60;;
58222;SDS011;44020;50.890;15.796;2024-02-26T14:00:29;5.00;;;3.10;;
58222;SDS011;44020;50.890;15.796;2024-02-26T14:03:00;4.20;;;3.00;;
58222;SDS011;44020;50.890;15.796;2024-02-26T14:05:28;4.50;;;3.10;;
58222;SDS011;44020;50.890;15.796;2024-02-26T14:07:56;5.20;;;3.50;;
58222;SDS011;44020;50.890;15.796;2024-02-26T14:10:23;4.70;;;3.10;;
58222;SDS011;44020;50.890;15.796;2024-02-26T14:12:54;6.80;;;3.50;;
58222;SDS011;44020;50.890;15.796;2024-02-26T14:15:21;7.50;;;3.30;;
58222;SDS011;44020;50.890;15.796;2024-02-26T14:17:49;4.70;;;3.10;;
58222;SDS011;44020;50.890;15.796;2024-02-26T14:20:21;5.60;;;3.10;;
58222;SDS011;44020;50.890;15.796;2024-02-26T14:22:50;5.80;;;2.90;;
58222;SDS011;44020;50.890;15.796;2024-02-26T14:25:25;5.80;;;3.30;;
58222;SDS011;44020;50.890;15.796;2024-02-26T14:27:52;4.00;;;2.70;;
58222;SDS011;44020;50.890;15.796;2024-02-26T14:30:20;4.40;;;2.60;;
58222;SDS011;44020;50.890;15.796;2024-02-26T14:32:49;5.60;;;3.20;;
58222;SDS011;44020;50.890;15.796;2024-02-26T14:35:16;5.10;;;3.20;;
58222;SDS011;44020;50.890;15.796;2024-02-26T14:37:44;7.50;;;3.80;;